Time;durP1;ratioP1;P1;durP2;ratioP2;P2;SDS_P1;SDS_P2;PMS_P1;PMS_P2;Temp;Humidity;BMP_temperature;BMP_pressure;BME280_temperature;BME280_humidity;BME280_pressure;Samples;Min_cycle;Max_cycle;Signal;HPM_P1;HPM_P2
2020/12/05 00:01:13;;;;;;;63.00;34.83;;;;;;;-0.71;64.38;102500.28;4971424;28;20089;-88
2020/12/05 00:03:40;;;;;;;63.47;38.63;;;;;;;-0.08;64.64;102582.88;4953603;28;20037;-84
2020/12/05 00:06:07;;;;;;;71.82;38.88;;;;;;;0.16;65.73;102606.28;4953409;28;20030;-84
2020/12/05 00:08:34;;;;;;;72.20;39.45;;;;;;;1.05;66.87;102750.19;4971202;28;20535;-85
2020/12/05 00:11:01;;;;;;;76.22;39.47;;;;;;;1.27;66.67;102750.09;4971172;28;20041;-85
2020/12/05 00:13:28;;;;;;;68.70;40.53;;;;;;;0.81;67.34;102660.50;4952744;28;20039;-86
2020/12/05 00:15:55;;;;;;;59.85;35.00;;;;;;;0.27;67.42;102592.56;4953216;28;20035;-86
2020/12/05 00:18:22;;;;;;;65.40;38.42;;;;;;;0.02;67.83;102523.03;4953245;28;20059;-86
2020/12/05 00:20:48;;;;;;;65.70;36.90;;;;;;;1.23;68.49;102739.47;4953500;28;20109;-84
2020/12/05 00:23:15;;;;;;;63.35;36.25;;;;;;;0.33;68.01;102581.13;4969897;28;20023;-88
2020/12/05 00:25:42;;;;;;;62.28;38.13;;;;;;;0.66;68.21;102611.78;4952575;28;20031;-85
2020/12/05 00:28:09;;;;;;;71.00;41.72;;;;;;;1.76;67.39;102769.31;4969319;28;20030;-86
2020/12/05 00:30:36;;;;;;;61.97;39.72;;;;;;;0.13;66.94;102474.78;4969976;28;20030;-85
2020/12/05 00:33:04;;;;;;;72.32;43.42;;;;;;;1.52;67.51;102712.38;4952774;28;20082;-85
2020/12/05 00:35:31;;;;;;;67.53;39.58;;;;;;;0.98;67.40;102633.56;4953180;28;20480;-87
2020/12/05 00:37:58;;;;;;;72.68;41.83;;;;;;;1.43;66.76;102660.34;4968923;28;20035;-85
2020/12/05 00:40:25;;;;;;;77.22;40.22;;;;;;;1.45;66.23;102668.41;4970534;28;20022;-86
2020/12/05 00:42:51;;;;;;;63.50;39.63;;;;;;;1.26;65.11;102615.53;4952943;28;20122;-86
2020/12/05 00:45:18;;;;;;;76.10;41.45;;;;;;;1.27;65.75;102628.16;4969230;28;20014;-86
2020/12/05 00:47:45;;;;;;;68.45;39.60;;;;;;;1.52;65.76;102668.69;4970443;28;20030;-86
2020/12/05 00:50:12;;;;;;;60.17;37.25;;;;;;;1.60;65.64;102669.72;4953183;28;20050;-86
2020/12/05 00:52:39;;;;;;;73.82;41.33;;;;;;;1.93;66.04;102745.91;4961701;28;20178;-87
2020/12/05 00:55:06;;;;;;;66.28;38.42;;;;;;;1.56;64.96;102631.91;4968619;28;20062;-86
2020/12/05 00:57:33;;;;;;;71.15;39.90;;;;;;;1.07;64.36;102551.75;4970732;28;20037;-85
2020/12/05 00:59:59;;;;;;;67.28;39.92;;;;;;;2.38;64.48;102757.28;4968773;28;20089;-87
2020/12/05 01:02:26;;;;;;;61.67;38.65;;;;;;;1.73;63.58;102625.72;4952427;28;20046;-83
2020/12/05 01:04:53;;;;;;;69.60;39.47;;;;;;;1.79;63.01;102597.00;4952486;28;20396;-84
2020/12/05 01:07:26;;;;;;;60.28;37.72;;;;;;;2.81;62.91;102731.25;4969675;28;20033;-85
2020/12/05 01:09:54;;;;;;;66.45;37.67;;;;;;;2.05;61.84;102616.34;4952042;28;20035;-85
2020/12/05 01:12:21;;;;;;;65.30;37.15;;;;;;;2.77;61.86;102727.09;4954200;28;20054;-86
2020/12/05 01:14:49;;;;;;;65.55;35.35;;;;;;;2.30;61.38;102668.66;4970988;28;20027;-85
2020/12/05 01:17:16;;;;;;;64.75;36.30;;;;;;;2.78;60.87;102698.72;4955493;28;20023;-85
2020/12/05 01:19:42;;;;;;;56.53;33.47;;;;;;;2.19;62.24;102638.72;4972738;28;20026;-86
2020/12/05 01:22:09;;;;;;;62.72;36.03;;;;;;;1.79;61.04;102515.06;4951352;28;20039;-85
2020/12/05 01:24:36;;;;;;;57.95;35.95;;;;;;;2.66;61.20;102656.16;4972394;28;20019;-84
2020/12/05 01:27:03;;;;;;;61.42;35.70;;;;;;;1.67;61.56;102508.91;4956639;28;20027;-85
2020/12/05 01:29:29;;;;;;;63.83;36.75;;;;;;;2.19;61.58;102605.94;4949463;28;20030;-86
2020/12/05 01:31:56;;;;;;;55.03;34.50;;;;;;;2.86;60.93;102673.34;4956066;28;20030;-85
2020/12/05 01:34:23;;;;;;;53.25;34.88;;;;;;;2.98;61.12;102661.19;4956734;28;20568;-84
2020/12/05 01:36:49;;;;;;;59.10;35.80;;;;;;;2.42;60.24;102550.91;4967642;28;20389;-85
2020/12/05 01:39:16;;;;;;;60.53;39.75;;;;;;;3.32;59.99;102667.91;4972907;28;20437;-84
2020/12/05 01:41:43;;;;;;;57.60;38.15;;;;;;;3.64;59.79;102704.84;4972702;28;20026;-86
2020/12/05 01:44:10;;;;;;;67.30;39.47;;;;;;;3.73;59.19;102713.19;4955514;28;20038;-85
2020/12/05 01:46:42;;;;;;;58.05;38.08;;;;;;;3.09;59.49;102624.53;4955274;28;20037;-85
2020/12/05 01:49:12;;;;;;;57.45;37.28;;;;;;;3.20;60.35;102650.00;4971789;28;20038;-82
2020/12/05 01:51:39;;;;;;;69.80;40.83;;;;;;;3.97;59.60;102745.44;4949866;28;20027;-84
2020/12/05 01:54:07;;;;;;;55.72;36.13;;;;;;;3.91;59.26;102716.78;4973333;28;20519;-85
2020/12/05 01:56:34;;;;;;;67.00;38.13;;;;;;;3.04;58.96;102542.06;4953124;28;20082;-84
2020/12/05 01:59:01;;;;;;;61.72;38.58;;;;;;;3.66;58.72;102622.53;4955404;28;20508;-84
2020/12/05 02:01:30;;;;;;;54.97;37.28;;;;;;;4.21;58.34;102689.97;4953383;28;20061;-83
2020/12/05 02:04:01;;;;;;;63.13;37.10;;;;;;;4.31;57.59;102661.56;4971834;28;20477;-83
2020/12/05 02:07:01;;;;;;;60.40;37.83;;;;;;;4.93;57.88;102732.78;4971420;28;20045;-84
2020/12/05 02:09:39;;;;;;;62.20;38.25;;;;;;;4.47;57.40;102658.09;4971479;28;20146;-84
2020/12/05 02:12:18;;;;;;;65.93;39.67;;;;;;;4.64;59.13;102739.47;4955644;28;20054;-83
2020/12/05 02:14:48;;;;;;;60.22;38.97;;;;;;;4.77;58.51;102732.69;4950693;28;20047;-85
2020/12/05 02:17:16;;;;;;;56.72;38.35;;;;;;;4.46;58.51;102672.81;4954164;28;20027;-84
2020/12/05 02:19:54;;;;;;;70.93;40.60;;;;;;;4.06;58.63;102603.84;4941966;28;20560;-84
2020/12/05 02:22:37;;;;;;;51.70;37.08;;;;;;;4.88;59.01;102720.56;4941354;28;20181;-84
2020/12/05 02:25:05;;;;;;;63.63;36.03;;;;;;;4.42;58.61;102625.66;4944610;28;20034;-81
2020/12/05 02:27:34;;;;;;;52.35;34.72;;;;;;;5.09;58.64;102711.03;4952558;28;20485;-84
2020/12/05 02:30:02;;;;;;;50.35;30.70;;;;;;;4.39;57.82;102612.25;4965051;28;20035;-85
2020/12/05 02:32:28;;;;;;;47.65;29.73;;;;;;;4.36;58.20;102618.91;4939780;28;20031;-85
2020/12/05 02:34:55;;;;;;;48.83;31.08;;;;;;;4.77;58.62;102728.03;4954498;28;20030;-80
2020/12/05 02:37:25;;;;;;;55.90;29.98;;;;;;;3.93;57.83;102522.88;4952447;28;20091;-81
2020/12/05 02:39:52;;;;;;;45.42;29.40;;;;;;;4.30;58.37;102596.78;4950175;28;20032;-83
2020/12/05 02:42:19;;;;;;;48.28;28.88;;;;;;;4.22;57.58;102571.03;4946795;28;20409;-83
2020/12/05 02:44:52;;;;;;;44.67;27.88;;;;;;;4.74;57.11;102662.53;4964039;28;20055;-83
2020/12/05 02:47:20;;;;;;;42.10;29.23;;;;;;;3.68;57.96;102503.56;4938396;28;20031;-84
2020/12/05 02:49:48;;;;;;;41.78;25.98;;;;;;;4.49;56.99;102610.28;4944571;28;20071;-81
2020/12/05 02:52:16;;;;;;;37.88;26.88;;;;;;;4.71;56.80;102632.66;4946818;28;20448;-80
2020/12/05 02:54:42;;;;;;;46.38;27.63;;;;;;;3.54;56.50;102416.50;4950392;28;20099;-83
2020/12/05 02:57:09;;;;;;;38.20;25.77;;;;;;;4.45;56.84;102586.91;4946624;28;20030;-84
2020/12/05 02:59:36;;;;;;;33.80;22.23;;;;;;;5.25;55.16;102675.44;4937168;28;20392;-84
2020/12/05 03:02:03;;;;;;;40.30;26.15;;;;;;;5.34;55.63;102670.78;4941566;28;20031;-84
2020/12/05 03:04:30;;;;;;;42.33;27.02;;;;;;;4.98;58.08;102638.94;4966155;28;20031;-83
2020/12/05 03:06:57;;;;;;;40.15;27.63;;;;;;;4.97;57.90;102629.00;4947925;28;20034;-85
2020/12/05 03:09:24;;;;;;;32.63;23.15;;;;;;;4.93;54.12;102567.19;4947145;28;20110;-81
2020/12/05 03:11:51;;;;;;;32.72;23.17;;;;;;;4.58;54.24;102509.66;4945505;28;20091;-83
2020/12/05 03:14:17;;;;;;;40.97;25.52;;;;;;;5.04;54.78;102596.22;4951938;28;20042;-82
2020/12/05 03:16:44;;;;;;;38.92;24.10;;;;;;;4.31;55.74;102508.00;4972511;28;20034;-82
2020/12/05 03:19:11;;;;;;;27.05;20.42;;;;;;;4.64;54.78;102574.00;4955405;28;20480;-82
2020/12/05 03:21:38;;;;;;;32.33;21.45;;;;;;;4.86;54.01;102560.66;4973682;28;20062;-83
2020/12/05 03:24:05;;;;;;;29.38;21.33;;;;;;;5.12;53.17;102587.16;4974133;28;20026;-84
2020/12/05 03:26:31;;;;;;;30.50;20.83;;;;;;;4.02;53.28;102397.72;4973011;28;20054;-82
2020/12/05 03:28:59;;;;;;;30.45;22.23;;;;;;;4.89;54.67;102602.34;4971513;28;20139;-85
2020/12/05 03:33:59;;;;;;;34.63;21.40;;;;;;;5.65;54.59;102637.19;4970619;28;20027;-83
2020/12/05 03:36:26;;;;;;;35.22;24.30;;;;;;;4.58;56.60;102525.25;4953325;28;20058;-84
2020/12/05 03:38:53;;;;;;;38.05;21.35;;;;;;;4.97;55.34;102590.56;4953420;28;20027;-84
2020/12/05 03:41:23;;;;;;;33.45;21.98;;;;;;;4.30;54.86;102481.59;4967645;28;20461;-83
2020/12/05 03:43:51;;;;;;;33.33;20.55;;;;;;;5.30;54.16;102623.56;4971070;28;20031;-84
2020/12/05 03:46:28;;;;;;;29.90;19.33;;;;;;;3.75;52.28;102275.53;4953472;28;20065;-84
2020/12/05 03:48:55;;;;;;;26.35;19.58;;;;;;;4.96;53.44;102520.22;4968994;28;20034;-83
2020/12/05 03:51:22;;;;;;;36.55;22.55;;;;;;;5.13;54.48;102565.03;4951795;28;20524;-85
2020/12/05 03:53:50;;;;;;;36.15;22.40;;;;;;;4.49;54.84;102462.16;4953050;28;20192;-83
2020/12/05 03:56:17;;;;;;;31.75;24.13;;;;;;;5.19;54.47;102604.69;4952042;28;21151;-83
2020/12/05 03:58:44;;;;;;;42.67;22.00;;;;;;;5.14;54.55;102598.81;4953015;28;20038;-83
2020/12/05 04:01:11;;;;;;;32.78;21.48;;;;;;;3.91;55.48;102453.69;4950593;28;20046;-84
2020/12/05 04:03:38;;;;;;;35.97;23.90;;;;;;;4.79;55.65;102609.88;4953315;28;20118;-80
2020/12/05 04:06:04;;;;;;;35.30;21.80;;;;;;;4.08;55.35;102519.53;4951838;28;20031;-83
2020/12/05 04:08:31;;;;;;;39.85;23.15;;;;;;;3.37;56.08;102390.88;4970630;28;20031;-82
2020/12/05 04:10:58;;;;;;;42.53;26.58;;;;;;;4.39;56.96;102529.97;4951460;28;20049;-83
2020/12/05 04:13:26;;;;;;;35.88;26.73;;;;;;;4.74;56.98;102533.53;4970107;28;20094;-82
2020/12/05 04:15:54;;;;;;;42.30;26.90;;;;;;;4.24;56.82;102437.38;4953160;28;20145;-81
2020/12/05 04:18:21;;;;;;;40.95;28.17;;;;;;;4.10;57.74;102440.75;4969727;28;20037;-83
2020/12/05 04:20:47;;;;;;;40.25;28.30;;;;;;;4.78;57.46;102586.22;4970195;28;20030;-86
2020/12/05 04:23:14;;;;;;;36.22;26.27;;;;;;;4.64;57.64;102539.16;4969261;28;20031;-83
2020/12/05 04:25:41;;;;;;;40.42;26.00;;;;;;;4.55;56.59;102482.56;4952739;28;20771;-84
2020/12/05 04:28:08;;;;;;;43.33;28.90;;;;;;;4.41;56.76;102472.22;4970007;28;20054;-83
2020/12/05 04:30:35;;;;;;;41.05;29.27;;;;;;;5.03;56.55;102567.94;4951232;28;20026;-81
2020/12/05 04:33:02;;;;;;;43.45;30.73;;;;;;;3.95;56.33;102389.31;4968806;28;20027;-84
2020/12/05 04:35:29;;;;;;;46.20;29.17;;;;;;;4.00;56.96;102445.50;4952322;28;20019;-85
2020/12/05 04:37:56;;;;;;;41.60;29.48;;;;;;;4.01;57.13;102453.56;4969749;28;20034;-83
2020/12/05 04:40:22;;;;;;;43.67;29.88;;;;;;;3.61;57.24;102370.16;4969546;28;20078;-84
2020/12/05 04:42:50;;;;;;;42.70;29.00;;;;;;;4.95;56.41;102551.44;4968543;28;20023;-84
2020/12/05 04:45:17;;;;;;;37.72;27.20;;;;;;;5.14;56.31;102585.09;4969175;28;20019;-84
2020/12/05 04:47:45;;;;;;;38.90;27.20;;;;;;;5.18;55.75;102594.72;4972644;28;20046;-82
2020/12/05 04:50:13;;;;;;;45.65;26.27;;;;;;;4.23;55.52;102446.63;4972864;28;20118;-84
2020/12/05 04:52:42;;;;;;;41.20;26.60;;;;;;;5.14;55.55;102590.59;4973729;28;20082;-84
2020/12/05 04:55:13;;;;;;;37.20;20.20;;;;;;;4.19;55.68;102455.34;4956254;28;20121;-85
2020/12/05 04:57:48;;;;;;;42.85;24.38;;;;;;;5.04;55.21;102544.06;4955968;28;20066;-84
2020/12/05 05:00:16;;;;;;;34.40;22.70;;;;;;;5.06;54.38;102496.19;4981229;28;20035;-85
2020/12/05 05:02:45;;;;;;;34.90;22.08;;;;;;;5.41;53.73;102520.75;4973672;28;20114;-83
2020/12/05 05:05:15;;;;;;;33.95;20.13;;;;;;;4.03;53.31;102314.47;4970699;28;20511;-82
2020/12/05 05:07:52;;;;;;;36.38;20.65;;;;;;;5.43;53.59;102534.31;4972901;28;20031;-82
2020/12/05 05:10:29;;;;;;;32.63;19.23;;;;;;;4.52;53.31;102371.28;4973036;28;20039;-83
2020/12/05 05:13:15;;;;;;;30.60;20.92;;;;;;;5.23;53.01;102479.72;4971484;28;20055;-83
2020/12/05 05:15:43;;;;;;;35.88;21.60;;;;;;;5.52;53.00;102524.22;4955562;28;20050;-83
2020/12/05 05:18:15;;;;;;;29.85;20.33;;;;;;;4.87;52.20;102327.19;4972578;28;20567;-82
2020/12/05 05:20:44;;;;;;;30.52;19.85;;;;;;;5.84;50.31;102450.97;4972741;28;20054;-84
2020/12/05 05:23:17;;;;;;;26.00;16.42;;;;;;;5.09;51.44;102458.44;4955865;28;20487;-84
2020/12/05 05:25:52;;;;;;;24.73;16.20;;;;;;;4.72;51.68;102406.63;4971668;28;20162;-84
2020/12/05 05:28:39;;;;;;;22.08;14.80;;;;;;;4.96;51.89;102450.72;4954851;28;20019;-82
2020/12/05 05:31:30;;;;;;;29.77;16.77;;;;;;;5.50;52.50;102556.47;4954976;28;20039;-83
2020/12/05 05:33:57;;;;;;;25.70;15.20;;;;;;;5.90;50.33;102502.50;4972743;28;20524;-82
2020/12/05 05:36:27;;;;;;;24.65;16.15;;;;;;;6.38;50.23;102549.31;4972319;28;20031;-82
2020/12/05 05:39:05;;;;;;;18.90;13.65;;;;;;;5.80;51.98;102551.28;4972490;28;20151;-82
2020/12/05 05:41:33;;;;;;;28.85;17.55;;;;;;;4.27;52.74;102331.16;4955156;28;20039;-83
2020/12/05 05:44:01;;;;;;;27.00;15.95;;;;;;;5.38;53.03;102551.31;4972382;28;20093;-84
2020/12/05 05:46:36;;;;;;;27.73;16.48;;;;;;;4.86;54.42;102505.75;4954049;28;20030;-85
2020/12/05 05:49:04;;;;;;;25.52;16.65;;;;;;;4.36;52.71;102313.66;4972755;28;20341;-82
2020/12/05 05:51:42;;;;;;;31.67;17.15;;;;;;;6.05;51.89;102549.41;4972634;28;20031;-83
2020/12/05 05:54:34;;;;;;;31.30;18.05;;;;;;;5.68;52.53;102556.28;4955338;28;20046;-83
2020/12/05 05:57:16;;;;;;;25.38;17.67;;;;;;;5.55;51.95;102494.50;4948390;28;20098;-83
2020/12/05 05:59:44;;;;;;;21.67;14.27;;;;;;;5.77;49.96;102551.66;4972216;28;20019;-83
2020/12/05 06:02:13;;;;;;;26.10;14.27;;;;;;;4.48;51.27;102394.59;4972176;28;20030;-85
2020/12/05 06:04:45;;;;;;;20.30;13.57;;;;;;;5.36;50.98;102497.59;4954740;28;20030;-84
2020/12/05 06:07:17;;;;;;;18.17;12.18;;;;;;;5.68;49.57;102532.44;4951882;28;20039;-83
2020/12/05 06:09:44;;;;;;;28.02;11.77;;;;;;;5.96;49.01;102518.31;4971725;28;20050;-82
2020/12/05 06:12:12;;;;;;;16.13;9.93;;;;;;;4.99;48.02;102368.03;4972101;28;20045;-83
2020/12/05 06:14:43;;;;;;;15.57;9.88;;;;;;;5.70;48.33;102488.28;4971163;28;20060;-83
2020/12/05 06:17:10;;;;;;;14.65;11.60;;;;;;;5.22;48.67;102423.09;4954612;28;20457;-83
2020/12/05 06:19:40;;;;;;;11.75;7.45;;;;;;;4.65;48.89;102394.63;4954723;28;20027;-83
2020/12/05 06:22:36;;;;;;;13.68;8.82;;;;;;;5.43;48.51;102528.84;4971650;28;20031;-83
2020/12/05 06:25:09;;;;;;;18.80;10.50;;;;;;;4.12;48.74;102312.59;4962149;28;20205;-82
2020/12/05 06:27:37;;;;;;;14.20;8.43;;;;;;;4.84;49.22;102481.25;4969387;28;20035;-84
2020/12/05 06:30:08;;;;;;;12.23;6.85;;;;;;;4.61;49.58;102459.06;4954195;28;20029;-84
2020/12/05 06:32:46;;;;;;;13.48;8.63;;;;;;;4.96;49.69;102509.22;4971567;28;20489;-84
2020/12/05 06:35:34;;;;;;;8.38;6.95;;;;;;;5.02;49.16;102511.31;4953152;28;20023;-84
2020/12/05 06:38:02;;;;;;;12.85;7.55;;;;;;;4.81;48.56;102448.63;4971370;28;20493;-84
2020/12/05 06:40:39;;;;;;;13.35;6.95;;;;;;;5.10;48.83;102550.78;4954101;28;20794;-83
2020/12/05 06:43:12;;;;;;;14.77;7.60;;;;;;;4.40;48.11;102396.47;4971550;28;20034;-84
2020/12/05 06:45:41;;;;;;;13.82;7.85;;;;;;;3.67;48.78;102320.16;4970379;28;20035;-84
2020/12/05 06:48:10;;;;;;;11.35;7.20;;;;;;;5.01;48.33;102537.06;4952501;28;20027;-85
2020/12/05 06:50:39;;;;;;;18.60;6.78;;;;;;;5.03;48.78;102556.94;4970867;28;20489;-85
2020/12/05 06:53:26;;;;;;;12.32;7.32;;;;;;;4.94;48.66;102546.97;4954014;28;20114;-83
2020/12/05 06:55:54;;;;;;;11.05;6.50;;;;;;;4.59;48.30;102472.09;4944361;28;20030;-85
2020/12/05 06:58:27;;;;;;;9.75;6.47;;;;;;;5.15;48.37;102537.38;4953839;28;20035;-85
2020/12/05 07:00:55;;;;;;;13.68;7.47;;;;;;;4.75;47.61;102461.16;4970413;28;20030;-84
2020/12/05 07:03:32;;;;;;;16.75;7.28;;;;;;;4.60;47.38;102438.16;4969194;28;20070;-84
2020/12/05 07:05:59;;;;;;;8.32;6.32;;;;;;;4.75;49.01;102556.38;4971710;28;20019;-81
2020/12/05 07:08:32;;;;;;;10.43;7.47;;;;;;;3.94;49.13;102439.63;4952855;28;20106;-87
2020/12/05 07:11:03;;;;;;;13.77;8.48;;;;;;;4.11;48.98;102426.88;4970295;28;20378;-87
2020/12/05 07:13:41;;;;;;;9.98;6.88;;;;;;;4.87;48.95;102554.16;4972208;28;20051;-88
2020/12/05 07:16:12;;;;;;;13.52;7.45;;;;;;;4.97;48.44;102519.19;4956943;28;20030;-87
2020/12/05 07:18:41;;;;;;;10.93;6.57;;;;;;;4.07;48.81;102413.66;4955869;28;20177;-87
2020/12/05 07:21:08;;;;;;;12.85;7.10;;;;;;;4.35;48.60;102455.41;4955133;28;20031;-90
2020/12/05 07:23:36;;;;;;;11.25;7.30;;;;;;;3.41;48.36;102278.13;4954936;28;20027;-87
2020/12/05 07:26:04;;;;;;;14.52;7.53;;;;;;;4.04;47.91;102378.38;4957389;28;20031;-91
2020/12/05 07:28:31;;;;;;;14.90;8.40;;;;;;;5.03;48.94;102580.78;4951149;28;20539;-92
2020/12/05 07:30:58;;;;;;;12.30;7.78;;;;;;;5.18;49.09;102575.50;4958094;28;20098;-84
2020/12/05 07:33:25;;;;;;;13.65;8.05;;;;;;;4.79;49.38;102594.28;4972649;28;20031;-88
2020/12/05 07:36:06;;;;;;;13.98;8.20;;;;;;;4.90;49.13;102586.75;4958861;28;20114;-90
2020/12/05 07:38:38;;;;;;;17.13;8.43;;;;;;;4.45;49.24;102493.66;4956948;28;20034;-92
2020/12/05 07:41:19;;;;;;;14.20;8.27;;;;;;;4.15;49.54;102493.19;4957145;28;20031;-91
2020/12/05 07:43:56;;;;;;;15.63;8.70;;;;;;;4.10;49.02;102482.72;4970009;28;20055;-94
2020/12/05 07:46:23;;;;;;;14.95;7.80;;;;;;;4.49;50.00;102538.94;4957119;28;20484;-91
2020/12/05 07:48:50;;;;;;;12.27;7.60;;;;;;;4.46;49.17;102509.09;4961606;28;20094;-90
2020/12/05 07:51:17;;;;;;;20.52;9.23;;;;;;;5.09;49.29;102584.72;4962155;28;20037;-87
2020/12/05 07:53:46;;;;;;;14.13;7.80;;;;;;;4.98;49.35;102581.28;4955719;28;20035;-89
2020/12/05 07:56:21;;;;;;;22.67;9.35;;;;;;;4.46;49.57;102511.84;4976649;28;20031;-92
2020/12/05 07:58:52;;;;;;;17.67;8.45;;;;;;;4.81;49.39;102590.50;4961909;28;20078;-86
2020/12/05 08:01:38;;;;;;;13.98;7.45;;;;;;;4.86;49.62;102582.63;4971590;28;20041;-87
2020/12/05 08:04:29;;;;;;;19.58;8.02;;;;;;;4.73;50.05;102580.34;4953964;28;20023;-91
2020/12/05 08:07:05;;;;;;;12.50;7.45;;;;;;;4.68;50.83;102589.09;4985337;28;20027;-90
2020/12/05 08:09:37;;;;;;;13.23;7.93;;;;;;;4.61;50.60;102596.25;4947069;28;20033;-89
2020/12/05 08:12:05;;;;;;;17.63;9.77;;;;;;;4.17;50.99;102524.03;4956762;28;20038;-87
2020/12/05 08:14:35;;;;;;;14.55;10.00;;;;;;;2.81;50.84;102309.97;4955709;28;20050;-91
2020/12/05 08:17:03;;;;;;;8.60;6.47;;;;;;;2.21;51.11;102206.78;4958179;28;20073;-87
2020/12/05 08:19:31;;;;;;;14.10;8.32;;;;;;;3.69;52.04;102469.66;4956089;28;20101;-83
2020/12/05 08:22:08;;;;;;;15.32;9.40;;;;;;;3.75;51.05;102459.09;4955730;28;20475;-82
2020/12/05 08:24:50;;;;;;;15.68;8.55;;;;;;;4.23;51.03;102515.16;4973564;28;20098;-85
2020/12/05 08:27:18;;;;;;;12.40;8.82;;;;;;;4.03;51.99;102527.41;4972141;28;20023;-81
2020/12/05 08:29:48;;;;;;;14.00;8.07;;;;;;;4.19;51.44;102535.72;4972535;28;20397;-85
2020/12/05 08:32:23;;;;;;;9.77;6.45;;;;;;;4.22;51.65;102551.84;4973073;28;20031;-84
2020/12/05 08:34:51;;;;;;;13.73;9.18;;;;;;;4.07;51.66;102526.94;4973659;28;20149;-85
2020/12/05 08:37:26;;;;;;;16.35;8.88;;;;;;;3.72;51.01;102449.31;4954820;28;20035;-75
2020/12/05 08:39:55;;;;;;;16.02;8.20;;;;;;;3.56;51.05;102434.50;4971651;28;20201;-79
2020/12/05 08:42:22;;;;;;;13.85;9.40;;;;;;;3.72;51.04;102459.38;4956995;28;20540;-83
2020/12/05 08:44:49;;;;;;;16.17;9.70;;;;;;;4.61;50.61;102579.78;4956372;28;20054;-87
2020/12/05 08:47:16;;;;;;;17.67;8.65;;;;;;;4.28;50.64;102539.34;4956106;28;20392;-88
2020/12/05 08:49:45;;;;;;;15.15;8.90;;;;;;;3.35;50.70;102391.06;4959122;28;20027;-86
2020/12/05 08:52:12;;;;;;;15.20;11.23;;;;;;;3.10;51.56;102322.44;4972144;28;20465;-84
2020/12/05 08:54:50;;;;;;;18.90;10.52;;;;;;;3.75;51.44;102459.09;4956671;28;20031;-85
2020/12/05 08:57:18;;;;;;;24.45;11.15;;;;;;;4.61;50.93;102586.16;4957030;28;20027;-85
2020/12/05 08:59:46;;;;;;;13.10;8.85;;;;;;;3.12;50.22;102366.97;4956647;28;20027;-87
2020/12/05 09:02:15;;;;;;;13.82;8.13;;;;;;;4.70;49.89;102589.75;4973464;28;20121;-86
2020/12/05 09:04:42;;;;;;;12.32;8.38;;;;;;;4.10;50.51;102517.53;4955649;28;20030;-87
2020/12/05 09:07:11;;;;;;;12.38;8.73;;;;;;;4.46;50.58;102596.88;4974715;28;20037;-85
2020/12/05 09:09:56;;;;;;;19.13;10.03;;;;;;;3.78;50.69;102506.19;4957152;28;20031;-84
2020/12/05 09:12:23;;;;;;;15.57;9.57;;;;;;;4.19;51.12;102587.81;4955414;28;20102;-84
2020/12/05 09:14:52;;;;;;;21.10;11.52;;;;;;;3.37;52.00;102446.50;4943301;28;20070;-83
2020/12/05 09:17:27;;;;;;;15.88;9.68;;;;;;;4.30;51.93;102615.97;4962250;28;20082;-83
2020/12/05 09:20:19;;;;;;;22.48;10.15;;;;;;;3.41;51.29;102426.00;4954494;28;20035;-84
2020/12/05 09:23:01;;;;;;;14.65;7.72;;;;;;;3.94;51.34;102523.75;4942418;28;20046;-83
2020/12/05 09:25:33;;;;;;;14.68;8.05;;;;;;;4.45;51.69;102608.03;4958080;28;20031;-83
2020/12/05 09:28:00;;;;;;;20.85;9.45;;;;;;;3.33;52.55;102461.53;4956631;28;20083;-84
2020/12/05 09:30:30;;;;;;;21.77;9.73;;;;;;;3.91;53.23;102559.69;4936176;28;20034;-84
2020/12/05 09:32:57;;;;;;;11.77;7.93;;;;;;;4.23;52.71;102597.44;4942386;28;20034;-89
2020/12/05 09:35:25;;;;;;;14.38;9.43;;;;;;;3.99;53.46;102594.53;4947310;28;20158;-89
2020/12/05 09:37:52;;;;;;;18.10;10.75;;;;;;;4.01;52.84;102538.53;4945603;28;20031;-89
2020/12/05 09:40:21;;;;;;;22.98;10.23;;;;;;;4.49;52.87;102626.72;4941792;28;20041;-85
2020/12/05 09:42:48;;;;;;;15.00;10.50;;;;;;;4.14;52.48;102534.47;4945158;28;20031;-85
2020/12/05 09:45:15;;;;;;;19.33;8.88;;;;;;;4.62;52.22;102631.75;4965016;28;20026;-87
2020/12/05 09:47:44;;;;;;;21.58;11.77;;;;;;;3.36;51.94;102391.91;4941438;28;20022;-87
2020/12/05 09:50:14;;;;;;;19.75;12.73;;;;;;;4.52;52.16;102587.97;4948991;28;20030;-89
2020/12/05 09:52:44;;;;;;;18.35;12.85;;;;;;;3.47;52.27;102419.03;4945765;28;20078;-86
2020/12/05 09:55:11;;;;;;;;;;;;;;;4.67;52.62;102606.56;4961424;28;20067;-87
2020/12/05 09:57:38;;;;;;;17.17;10.35;;;;;;;4.66;52.21;102607.59;4946311;28;19926;-88
2020/12/05 10:00:08;;;;;;;15.00;11.23;;;;;;;4.28;52.95;102564.03;4946410;28;20119;-85
2020/12/05 10:02:39;;;;;;;15.07;10.13;;;;;;;4.69;52.45;102615.50;4966095;28;20022;-79
2020/12/05 10:05:07;;;;;;;15.90;9.32;;;;;;;4.09;52.64;102508.44;4959893;28;20108;-84
2020/12/05 10:07:35;;;;;;;16.17;9.55;;;;;;;4.84;52.22;102604.75;4959717;28;20499;-82
2020/12/05 10:10:02;;;;;;;16.10;10.35;;;;;;;3.73;52.52;102426.34;4944670;28;20461;-80
2020/12/05 10:12:29;;;;;;;17.80;11.27;;;;;;;4.37;51.78;102519.19;4964326;28;20057;-88
2020/12/05 10:14:55;;;;;;;12.27;9.00;;;;;;;4.85;52.64;102611.09;4955431;29;20031;-90
2020/12/05 10:17:22;;;;;;;15.10;10.88;;;;;;;5.05;52.06;102619.94;4939567;28;20051;-89
2020/12/05 10:19:49;;;;;;;16.25;9.43;;;;;;;3.46;52.55;102372.63;4949296;29;20446;-90
2020/12/05 10:22:16;;;;;;;17.83;11.63;;;;;;;4.71;52.49;102566.81;4946056;29;20122;-89
2020/12/05 10:24:43;;;;;;;14.48;10.63;;;;;;;4.11;52.66;102470.72;4959391;28;20039;-87
2020/12/05 10:27:10;;;;;;;18.05;10.65;;;;;;;3.97;52.82;102458.50;4964353;28;20031;-89
2020/12/05 10:29:36;;;;;;;19.17;11.23;;;;;;;4.69;53.52;102615.50;4967051;28;20186;-88
2020/12/05 10:32:03;;;;;;;16.75;11.32;;;;;;;4.74;53.23;102613.13;4957105;28;20062;-88
2020/12/05 10:34:30;;;;;;;18.95;11.43;;;;;;;3.83;53.40;102450.91;4966414;28;20042;-83
2020/12/05 10:36:57;;;;;;;15.02;10.40;;;;;;;3.81;53.12;102444.75;4962053;28;20049;-85
2020/12/05 10:39:24;;;;;;;17.00;12.02;;;;;;;4.06;52.68;102464.03;4963973;28;20127;-84
2020/12/05 10:41:53;;;;;;;16.80;11.00;;;;;;;3.57;52.73;102386.06;4942562;28;20053;-85
2020/12/05 10:44:20;;;;;;;17.83;10.60;;;;;;;4.46;53.19;102522.81;4944269;28;20058;-84
2020/12/05 10:46:48;;;;;;;23.30;13.52;;;;;;;4.89;53.16;102612.50;4958177;28;20031;-86
2020/12/05 10:49:16;;;;;;;17.42;11.80;;;;;;;4.76;53.03;102575.38;4945043;28;20438;-92
2020/12/05 10:51:43;;;;;;;15.43;12.02;;;;;;;3.82;52.82;102414.41;4961540;28;20039;-90
2020/12/05 10:54:10;;;;;;;17.20;11.88;;;;;;;4.77;53.06;102546.06;4976946;28;20049;-93
2020/12/05 10:56:40;;;;;;;19.20;11.40;;;;;;;5.00;52.92;102584.72;4938095;28;20393;-90
2020/12/05 10:59:07;;;;;;;20.35;11.18;;;;;;;4.66;52.88;102533.53;4952196;28;20058;-89
2020/12/05 11:01:35;;;;;;;18.38;10.90;;;;;;;5.15;53.00;102625.25;4951140;28;20043;-89
2020/12/05 11:04:05;;;;;;;21.48;13.07;;;;;;;5.11;52.79;102630.22;4947072;28;20022;-91
2020/12/05 11:06:32;;;;;;;22.85;11.68;;;;;;;4.02;53.89;102473.59;4957100;28;20026;-96
2020/12/05 11:08:59;;;;;;;21.48;11.10;;;;;;;4.30;53.93;102533.72;4967053;28;20027;-90
2020/12/05 11:11:25;;;;;;;15.73;11.40;;;;;;;4.79;53.85;102613.50;4943992;28;20046;-91
2020/12/05 11:13:52;;;;;;;22.63;11.02;;;;;;;4.14;54.03;102520.75;4953980;28;20046;-87
2020/12/05 11:16:21;;;;;;;17.13;11.45;;;;;;;4.47;54.27;102571.16;4963307;28;20064;-88
2020/12/05 11:18:49;;;;;;;14.20;9.90;;;;;;;3.06;53.93;102326.53;4961946;28;20122;-88
2020/12/05 11:21:16;;;;;;;25.02;10.05;;;;;;;3.82;54.44;102476.59;4962510;28;20055;-90
2020/12/05 11:23:43;;;;;;;18.60;11.18;;;;;;;4.76;54.04;102622.03;4969512;28;20031;-89
2020/12/05 11:26:10;;;;;;;17.60;11.90;;;;;;;3.82;54.25;102476.59;4963652;28;20038;-89
2020/12/05 11:28:40;;;;;;;18.75;13.15;;;;;;;3.00;54.57;102325.31;4971029;28;20031;-93
2020/12/05 11:31:06;;;;;;;20.80;12.50;;;;;;;4.16;54.63;102526.97;4971102;28;20500;-88
2020/12/05 11:33:35;;;;;;;18.25;11.02;;;;;;;4.70;54.69;102617.19;4944745;28;20373;-90